SAS2547 ESSA-EGCC
Flight info
| Callsign | SAS2547 |
|---|---|
| Flight time | N/A |
| Altitude | 38000 |
| Route | ARS N623 BEDLA P609 KSD DCT MOGLU DCT NIVUN DCT LAMRO DCT CUTEL DCT DIGBI DCT TILNI |
| Aircraft | B737/M-SDE3FGIRWXY/L |
Departure
| Time | 2026-05-04 18:27 |
|---|---|
| Airport | Stockholm-Arlanda Airport (ESSA) |
Arrival
| Time | N/A |
|---|---|
| Airport | Manchester Airport (EGCC) |
| Time | Latitude | Longitude | Altitude | Speed | Heading |
|---|---|---|---|---|---|
| 2026-05-04 17:35 | 59.65385 | 17.93038 | 111 ft | 0 kts | 191° |
| 2026-05-04 18:15 | 59.65387 | 17.93039 | 110 ft | 3 kts | 191° |
| 2026-05-04 18:15 | 59.65426 | 17.93059 | 107 ft | 4 kts | 250° |
| 2026-05-04 18:15 | 59.65432 | 17.93102 | 108 ft | 2 kts | 255° |
| 2026-05-04 18:16 | 59.65433 | 17.93107 | 108 ft | 0 kts | 255° |
| 2026-05-04 18:19 | 59.65432 | 17.93105 | 108 ft | 1 kts | 255° |
| 2026-05-04 18:19 | 59.65427 | 17.93067 | 107 ft | 5 kts | 255° |
| 2026-05-04 18:20 | 59.65422 | 17.92993 | 111 ft | 5 kts | 285° |
| 2026-05-04 18:20 | 59.65451 | 17.92944 | 111 ft | 6 kts | 323° |
| 2026-05-04 18:20 | 59.65466 | 17.92876 | 111 ft | 6 kts | 274° |
| 2026-05-04 18:20 | 59.65456 | 17.92798 | 110 ft | 6 kts | 248° |
| 2026-05-04 18:21 | 59.65436 | 17.92724 | 110 ft | 7 kts | 240° |
| 2026-05-04 18:21 | 59.65410 | 17.92644 | 110 ft | 8 kts | 232° |
| 2026-05-04 18:21 | 59.65368 | 17.92556 | 110 ft | 10 kts | 221° |
| 2026-05-04 18:21 | 59.65312 | 17.92472 | 108 ft | 10 kts | 219° |
| 2026-05-04 18:22 | 59.65299 | 17.92348 | 107 ft | 10 kts | 288° |
| 2026-05-04 18:22 | 59.65361 | 17.92278 | 104 ft | 12 kts | 4° |
| 2026-05-04 18:22 | 59.65444 | 17.92305 | 103 ft | 13 kts | 9° |
| 2026-05-04 18:22 | 59.65537 | 17.92338 | 104 ft | 14 kts | 11° |
| 2026-05-04 18:23 | 59.65642 | 17.92379 | 103 ft | 16 kts | 11° |
| 2026-05-04 18:23 | 59.65756 | 17.92422 | 104 ft | 16 kts | 8° |
| 2026-05-04 18:23 | 59.65867 | 17.92458 | 106 ft | 16 kts | 10° |
| 2026-05-04 18:23 | 59.65976 | 17.92500 | 108 ft | 16 kts | 10° |
| 2026-05-04 18:24 | 59.66101 | 17.92544 | 110 ft | 21 kts | 10° |
| 2026-05-04 18:24 | 59.66242 | 17.92595 | 114 ft | 20 kts | 11° |
| 2026-05-04 18:24 | 59.66379 | 17.92646 | 119 ft | 20 kts | 9° |
| 2026-05-04 18:24 | 59.66488 | 17.92640 | 119 ft | 15 kts | 342° |
| 2026-05-04 18:25 | 59.66581 | 17.92575 | 124 ft | 13 kts | 338° |
| 2026-05-04 18:25 | 59.66619 | 17.92456 | 123 ft | 11 kts | 265° |
| 2026-05-04 18:25 | 59.66596 | 17.92360 | 121 ft | 7 kts | 204° |
| 2026-05-04 18:25 | 59.66577 | 17.92353 | 122 ft | 0 kts | 189° |
| 2026-05-04 18:26 | 59.66513 | 17.92332 | 120 ft | 36 kts | 192° |
| 2026-05-04 18:26 | 59.66011 | 17.92144 | 115 ft | 109 kts | 192° |
| 2026-05-04 18:26 | 59.65070 | 17.91785 | 183 ft | 158 kts | 197° |
| 2026-05-04 18:27 | 59.63995 | 17.91344 | 923 ft | 158 kts | 198° |
| 2026-05-04 18:27 | 59.62877 | 17.91001 | 1609 ft | 170 kts | 196° |
| 2026-05-04 18:27 | 59.61667 | 17.90278 | 1896 ft | 193 kts | 223° |
| 2026-05-04 18:27 | 59.60844 | 17.88133 | 2384 ft | 203 kts | 242° |
| 2026-05-04 18:28 | 59.60076 | 17.85770 | 3255 ft | 206 kts | 241° |
| 2026-05-04 18:28 | 59.59283 | 17.83379 | 4126 ft | 210 kts | 241° |
| 2026-05-04 18:28 | 59.58496 | 17.80903 | 4920 ft | 219 kts | 245° |
| 2026-05-04 18:28 | 59.57748 | 17.78073 | 5316 ft | 244 kts | 246° |
| 2026-05-04 18:29 | 59.56996 | 17.75023 | 6158 ft | 249 kts | 252° |
| 2026-05-04 18:29 | 59.56721 | 17.71683 | 7061 ft | 248 kts | 270° |
| 2026-05-04 18:29 | 59.56762 | 17.68264 | 7961 ft | 252 kts | 273° |
| 2026-05-04 18:29 | 59.56843 | 17.64791 | 8843 ft | 255 kts | 273° |
| 2026-05-04 18:30 | 59.57017 | 17.57648 | 10247 ft | 275 kts | 272° |
| 2026-05-04 18:30 | 59.57107 | 17.53705 | 10429 ft | 300 kts | 272° |
| 2026-05-04 18:30 | 59.57173 | 17.49421 | 10619 ft | 324 kts | 270° |
| 2026-05-04 18:31 | 59.57131 | 17.44875 | 11079 ft | 337 kts | 268° |
| 2026-05-04 18:31 | 59.57045 | 17.40241 | 11875 ft | 338 kts | 267° |
| 2026-05-04 18:31 | 59.56950 | 17.35611 | 12787 ft | 338 kts | 267° |
| 2026-05-04 18:31 | 59.56856 | 17.30972 | 13678 ft | 339 kts | 267° |
| 2026-05-04 18:32 | 59.56765 | 17.26322 | 14445 ft | 341 kts | 267° |
| 2026-05-04 18:32 | 59.56676 | 17.21640 | 15219 ft | 343 kts | 267° |
| 2026-05-04 18:32 | 59.56589 | 17.16926 | 16009 ft | 345 kts | 268° |
| 2026-05-04 18:32 | 59.56501 | 17.12205 | 16899 ft | 344 kts | 268° |
| 2026-05-04 18:33 | 59.56414 | 17.07491 | 17748 ft | 344 kts | 268° |
| 2026-05-04 18:33 | 59.56327 | 17.02820 | 18385 ft | 348 kts | 268° |
| 2026-05-04 18:33 | 59.56236 | 16.98031 | 18978 ft | 351 kts | 268° |
| 2026-05-04 18:33 | 59.56143 | 16.93207 | 19592 ft | 353 kts | 268° |
| 2026-05-04 18:34 | 59.56048 | 16.88352 | 20212 ft | 356 kts | 268° |
| 2026-05-04 18:34 | 59.55950 | 16.83465 | 20818 ft | 358 kts | 268° |
| 2026-05-04 18:34 | 59.55850 | 16.78533 | 21393 ft | 361 kts | 267° |
| 2026-05-04 18:34 | 59.55748 | 16.73579 | 21952 ft | 364 kts | 267° |
| 2026-05-04 18:35 | 59.55642 | 16.68570 | 22507 ft | 366 kts | 267° |
| 2026-05-04 18:35 | 59.55534 | 16.63532 | 23057 ft | 369 kts | 267° |
| 2026-05-04 18:35 | 59.55423 | 16.58458 | 23524 ft | 372 kts | 267° |
| 2026-05-04 18:35 | 59.55310 | 16.53345 | 23935 ft | 375 kts | 267° |
| 2026-05-04 18:36 | 59.55193 | 16.48196 | 24351 ft | 377 kts | 267° |
| 2026-05-04 18:36 | 59.55074 | 16.43014 | 24819 ft | 379 kts | 267° |
| 2026-05-04 18:36 | 59.54953 | 16.37821 | 25252 ft | 380 kts | 267° |
| 2026-05-04 18:36 | 59.54828 | 16.32596 | 25606 ft | 384 kts | 267° |
| 2026-05-04 18:37 | 59.54700 | 16.27313 | 25951 ft | 387 kts | 267° |
| 2026-05-04 18:37 | 59.54570 | 16.22006 | 26311 ft | 389 kts | 267° |
| 2026-05-04 18:37 | 59.54436 | 16.16661 | 26660 ft | 392 kts | 267° |
| 2026-05-04 18:37 | 59.54299 | 16.11278 | 26991 ft | 394 kts | 267° |
| 2026-05-04 18:38 | 59.54159 | 16.05865 | 27317 ft | 397 kts | 267° |
| 2026-05-04 18:38 | 59.54018 | 16.00482 | 27629 ft | 399 kts | 266° |
| 2026-05-04 18:38 | 59.53871 | 15.94949 | 28083 ft | 399 kts | 266° |
| 2026-05-04 18:38 | 59.53725 | 15.89580 | 28597 ft | 397 kts | 266° |
| 2026-05-04 18:39 | 59.53574 | 15.84094 | 29121 ft | 395 kts | 266° |
| 2026-05-04 18:39 | 59.53423 | 15.78687 | 29567 ft | 395 kts | 266° |
| 2026-05-04 18:39 | 59.53270 | 15.73286 | 29993 ft | 395 kts | 266° |
| 2026-05-04 18:39 | 59.53117 | 15.67962 | 30386 ft | 394 kts | 266° |
| 2026-05-04 18:40 | 59.52960 | 15.62583 | 30761 ft | 393 kts | 266° |
| 2026-05-04 18:40 | 59.52801 | 15.57201 | 31008 ft | 395 kts | 266° |
| 2026-05-04 18:40 | 59.52638 | 15.51768 | 31221 ft | 398 kts | 266° |
| 2026-05-04 18:40 | 59.52473 | 15.46338 | 31607 ft | 396 kts | 266° |
| 2026-05-04 18:41 | 59.52306 | 15.40933 | 32047 ft | 394 kts | 266° |
| 2026-05-04 18:41 | 59.52139 | 15.35562 | 32430 ft | 393 kts | 266° |
| 2026-05-04 18:41 | 59.51968 | 15.30183 | 32756 ft | 393 kts | 266° |
| 2026-05-04 18:41 | 59.51796 | 15.24809 | 33074 ft | 393 kts | 266° |
| 2026-05-04 18:42 | 59.51622 | 15.19442 | 33445 ft | 392 kts | 266° |
| 2026-05-04 18:42 | 59.51506 | 15.15903 | 33678 ft | 391 kts | 266° |
| 2026-05-04 18:42 | 59.51328 | 15.10556 | 33946 ft | 391 kts | 266° |
| 2026-05-04 18:42 | 59.51148 | 15.05188 | 34057 ft | 395 kts | 265° |
| 2026-05-04 18:43 | 59.50963 | 14.99765 | 34171 ft | 398 kts | 265° |
| 2026-05-04 18:43 | 59.50776 | 14.94328 | 34433 ft | 397 kts | 265° |
| 2026-05-04 18:43 | 59.50588 | 14.88908 | 34686 ft | 397 kts | 265° |
| 2026-05-04 18:43 | 59.50396 | 14.83473 | 34851 ft | 399 kts | 265° |
| 2026-05-04 18:44 | 59.50202 | 14.78012 | 35021 ft | 400 kts | 266° |
| 2026-05-04 18:44 | 59.50069 | 14.74325 | 35165 ft | 401 kts | 265° |
| 2026-05-04 18:44 | 59.49805 | 14.67082 | 35450 ft | 401 kts | 265° |
| 2026-05-04 18:44 | 59.49600 | 14.61531 | 35631 ft | 402 kts | 265° |
| 2026-05-04 18:45 | 59.49398 | 14.56107 | 35825 ft | 403 kts | 265° |
| 2026-05-04 18:45 | 59.49190 | 14.50615 | 36011 ft | 403 kts | 265° |
| 2026-05-04 18:45 | 59.48980 | 14.45107 | 36190 ft | 404 kts | 265° |
| 2026-05-04 18:45 | 59.48766 | 14.39587 | 36397 ft | 405 kts | 265° |
| 2026-05-04 18:46 | 59.48551 | 14.34059 | 36550 ft | 406 kts | 265° |
| 2026-05-04 18:46 | 59.48331 | 14.28508 | 36716 ft | 407 kts | 265° |
| 2026-05-04 18:46 | 59.48110 | 14.22956 | 36857 ft | 408 kts | 265° |
| 2026-05-04 18:46 | 59.47885 | 14.17378 | 37000 ft | 409 kts | 265° |
| 2026-05-04 18:47 | 59.47657 | 14.11789 | 37172 ft | 410 kts | 265° |
| 2026-05-04 18:47 | 59.47427 | 14.06205 | 37351 ft | 410 kts | 265° |
| 2026-05-04 18:47 | 59.47194 | 14.00611 | 37500 ft | 411 kts | 265° |
| 2026-05-04 18:47 | 59.46958 | 13.95002 | 37650 ft | 412 kts | 265° |
| 2026-05-04 18:48 | 59.46719 | 13.89379 | 37709 ft | 414 kts | 265° |
| 2026-05-04 18:48 | 59.46233 | 13.78103 | 37709 ft | 412 kts | 265° |
| 2026-05-04 18:49 | 59.45740 | 13.66914 | 37707 ft | 409 kts | 265° |
| 2026-05-04 18:49 | 59.45243 | 13.55813 | 37708 ft | 407 kts | 265° |
| 2026-05-04 18:50 | 59.44740 | 13.44771 | 37719 ft | 405 kts | 265° |
| 2026-05-04 18:50 | 59.44098 | 13.33794 | 37712 ft | 405 kts | 259° |
| 2026-05-04 18:51 | 59.42322 | 13.23284 | 37728 ft | 407 kts | 251° |
| 2026-05-04 18:51 | 59.40244 | 13.12920 | 37722 ft | 408 kts | 251° |
| 2026-05-04 18:52 | 59.38167 | 13.02522 | 37724 ft | 410 kts | 251° |
| 2026-05-04 18:52 | 59.36089 | 12.92084 | 37721 ft | 412 kts | 250° |
| 2026-05-04 18:53 | 59.34032 | 12.81677 | 37721 ft | 413 kts | 252° |
| 2026-05-04 18:53 | 59.32243 | 12.70991 | 37730 ft | 413 kts | 254° |
| 2026-05-04 18:54 | 59.30546 | 12.60246 | 37734 ft | 413 kts | 254° |
| 2026-05-04 18:54 | 59.28823 | 12.49508 | 37732 ft | 414 kts | 254° |
| 2026-05-04 18:55 | 59.27073 | 12.38819 | 37729 ft | 412 kts | 254° |
| 2026-05-04 18:55 | 59.24428 | 12.22881 | 37737 ft | 410 kts | 253° |
| 2026-05-04 18:56 | 59.22656 | 12.12296 | 37739 ft | 410 kts | 253° |
| 2026-05-04 18:56 | 59.20879 | 12.01741 | 37753 ft | 409 kts | 253° |
| 2026-05-04 18:57 | 59.19095 | 11.91206 | 37751 ft | 409 kts | 253° |
| 2026-05-04 18:57 | 59.17302 | 11.80680 | 37750 ft | 409 kts | 253° |
| 2026-05-04 18:58 | 59.15503 | 11.70179 | 37760 ft | 408 kts | 253° |
| 2026-05-04 18:58 | 59.13696 | 11.59686 | 37761 ft | 408 kts | 253° |
| 2026-05-04 18:59 | 59.11878 | 11.49198 | 37760 ft | 409 kts | 253° |
| 2026-05-04 18:59 | 59.10048 | 11.38697 | 37733 ft | 410 kts | 253° |
| 2026-05-04 19:00 | 59.08213 | 11.28225 | 37769 ft | 409 kts | 253° |
| 2026-05-04 19:00 | 59.06371 | 11.17772 | 37843 ft | 409 kts | 253° |
| 2026-05-04 19:01 | 59.04520 | 11.07333 | 37769 ft | 409 kts | 253° |
| 2026-05-04 19:01 | 59.02662 | 10.96909 | 37773 ft | 409 kts | 253° |
| 2026-05-04 19:02 | 59.00808 | 10.86562 | 37813 ft | 408 kts | 252° |
| 2026-05-04 19:02 | 58.98934 | 10.76165 | 37792 ft | 408 kts | 252° |
| 2026-05-04 19:03 | 58.97094 | 10.66014 | 37789 ft | 408 kts | 252° |
| 2026-05-04 19:03 | 58.95306 | 10.56198 | 37783 ft | 407 kts | 252° |
| 2026-05-04 19:04 | 58.93413 | 10.45864 | 37800 ft | 407 kts | 252° |
| 2026-05-04 19:04 | 58.91514 | 10.35550 | 37790 ft | 407 kts | 252° |
| 2026-05-04 19:05 | 58.89608 | 10.25256 | 37781 ft | 406 kts | 252° |
| 2026-05-04 19:05 | 58.87698 | 10.14992 | 37808 ft | 406 kts | 252° |
| 2026-05-04 19:06 | 58.85778 | 10.04736 | 37804 ft | 406 kts | 252° |
| 2026-05-04 19:06 | 58.83852 | 9.94495 | 37807 ft | 406 kts | 252° |
| 2026-05-04 19:07 | 58.81915 | 9.84256 | 37809 ft | 406 kts | 252° |
| 2026-05-04 19:07 | 58.79972 | 9.74037 | 37808 ft | 406 kts | 252° |
| 2026-05-04 19:08 | 58.78020 | 9.63825 | 37819 ft | 406 kts | 252° |
| 2026-05-04 19:08 | 58.76061 | 9.53631 | 37819 ft | 406 kts | 252° |
| 2026-05-04 19:09 | 58.74094 | 9.43445 | 37827 ft | 406 kts | 251° |
| 2026-05-04 19:09 | 58.72118 | 9.33270 | 37819 ft | 406 kts | 251° |
| 2026-05-04 19:10 | 58.70136 | 9.23117 | 37812 ft | 405 kts | 251° |
| 2026-05-04 19:10 | 58.68149 | 9.12988 | 37818 ft | 405 kts | 251° |
| 2026-05-04 19:11 | 58.66154 | 9.02872 | 37823 ft | 405 kts | 251° |
| 2026-05-04 19:11 | 58.64149 | 8.92758 | 37835 ft | 405 kts | 251° |
| 2026-05-04 19:12 | 58.61124 | 8.77591 | 37821 ft | 406 kts | 251° |
| 2026-05-04 19:13 | 58.59109 | 8.67552 | 37826 ft | 406 kts | 251° |
| 2026-05-04 19:13 | 58.57072 | 8.57455 | 37837 ft | 406 kts | 251° |
| 2026-05-04 19:14 | 58.55025 | 8.47357 | 37842 ft | 407 kts | 251° |
| 2026-05-04 19:14 | 58.52968 | 8.37266 | 37853 ft | 407 kts | 251° |
| 2026-05-04 19:15 | 58.50904 | 8.27190 | 37851 ft | 407 kts | 251° |
| 2026-05-04 19:15 | 58.48831 | 8.17119 | 37850 ft | 407 kts | 251° |
| 2026-05-04 19:16 | 58.46749 | 8.07061 | 37852 ft | 407 kts | 250° |
| 2026-05-04 19:16 | 58.44659 | 7.97005 | 37869 ft | 408 kts | 250° |
| 2026-05-04 19:17 | 58.42556 | 7.86935 | 37866 ft | 409 kts | 250° |
| 2026-05-04 19:17 | 58.40443 | 7.76871 | 37864 ft | 409 kts | 250° |
| 2026-05-04 19:18 | 58.38321 | 7.66816 | 37877 ft | 409 kts | 250° |
| 2026-05-04 19:18 | 58.36191 | 7.56772 | 37885 ft | 409 kts | 250° |
| 2026-05-04 19:19 | 58.34053 | 7.46737 | 37869 ft | 409 kts | 250° |
| 2026-05-04 19:19 | 58.31919 | 7.36774 | 37889 ft | 410 kts | 249° |
| 2026-05-04 19:20 | 58.29757 | 7.26722 | 37895 ft | 411 kts | 249° |
| 2026-05-04 19:20 | 58.27578 | 7.16646 | 37854 ft | 413 kts | 250° |
| 2026-05-04 19:21 | 58.25387 | 7.06559 | 37892 ft | 414 kts | 249° |
| 2026-05-04 19:21 | 58.23180 | 6.96451 | 37894 ft | 415 kts | 249° |
| 2026-05-04 19:22 | 58.20963 | 6.86343 | 37902 ft | 416 kts | 249° |
| 2026-05-04 19:22 | 58.18733 | 6.76228 | 37910 ft | 416 kts | 249° |
| 2026-05-04 19:23 | 58.16494 | 6.66124 | 37916 ft | 415 kts | 249° |
| 2026-05-04 19:23 | 58.14249 | 6.56039 | 37918 ft | 416 kts | 249° |
| 2026-05-04 19:24 | 58.12162 | 6.46707 | 37919 ft | 415 kts | 249° |
| 2026-05-04 19:24 | 58.10158 | 6.37787 | 37925 ft | 415 kts | 249° |
| 2026-05-04 19:25 | 58.08514 | 6.30493 | 37930 ft | 414 kts | 249° |
| 2026-05-04 19:25 | 58.07306 | 6.25035 | 37931 ft | 413 kts | 251° |
| 2026-05-04 19:25 | 58.06678 | 6.22438 | 37903 ft | 416 kts | 239° |
| 2026-05-04 19:26 | 58.05355 | 6.19211 | 37455 ft | 427 kts | 234° |
| 2026-05-04 19:26 | 58.03164 | 6.12569 | 37548 ft | 413 kts | 252° |
| 2026-05-04 19:26 | 58.02400 | 6.08077 | 37737 ft | 408 kts | 255° |
| 2026-05-04 19:27 | 58.01713 | 6.03715 | 37820 ft | 409 kts | 254° |
| 2026-05-04 19:27 | 58.00553 | 5.97119 | 37892 ft | 412 kts | 252° |
| 2026-05-04 19:28 | 57.98521 | 5.87060 | 37933 ft | 416 kts | 250° |
| 2026-05-04 19:28 | 57.96279 | 5.76979 | 37944 ft | 418 kts | 249° |
| 2026-05-04 19:29 | 57.93952 | 5.66921 | 37947 ft | 419 kts | 248° |
| 2026-05-04 19:29 | 57.91605 | 5.56887 | 37940 ft | 418 kts | 248° |
| 2026-05-04 19:30 | 57.89658 | 5.48590 | 37947 ft | 417 kts | 248° |
| 2026-05-04 19:30 | 57.87315 | 5.38639 | 37946 ft | 415 kts | 248° |
| 2026-05-04 19:31 | 57.84976 | 5.28739 | 37948 ft | 414 kts | 248° |
| 2026-05-04 19:31 | 57.82632 | 5.18868 | 37960 ft | 413 kts | 248° |
| 2026-05-04 19:32 | 57.80288 | 5.09040 | 37956 ft | 412 kts | 248° |
| 2026-05-04 19:32 | 57.77937 | 4.99225 | 37959 ft | 412 kts | 248° |
| 2026-05-04 19:33 | 57.75583 | 4.89443 | 37958 ft | 412 kts | 248° |
| 2026-05-04 19:33 | 57.73274 | 4.79889 | 37972 ft | 413 kts | 248° |
| 2026-05-04 19:34 | 57.70899 | 4.70103 | 37965 ft | 413 kts | 248° |
| 2026-05-04 19:34 | 57.68516 | 4.60332 | 37968 ft | 413 kts | 248° |
| 2026-05-04 19:35 | 57.66120 | 4.50553 | 37968 ft | 414 kts | 248° |
| 2026-05-04 19:35 | 57.63719 | 4.40793 | 37967 ft | 414 kts | 248° |
| 2026-05-04 19:36 | 57.61307 | 4.31024 | 37973 ft | 414 kts | 248° |
| 2026-05-04 19:36 | 57.58894 | 4.21351 | 37979 ft | 415 kts | 245° |
| 2026-05-04 19:37 | 57.55679 | 4.12394 | 37981 ft | 418 kts | 236° |
| 2026-05-04 19:37 | 57.52111 | 4.03836 | 37975 ft | 419 kts | 236° |
| 2026-05-04 19:38 | 57.48542 | 3.95282 | 37983 ft | 419 kts | 236° |
| 2026-05-04 19:38 | 57.44980 | 3.86717 | 37976 ft | 419 kts | 236° |
| 2026-05-04 19:39 | 57.41415 | 3.78150 | 37979 ft | 419 kts | 236° |
| 2026-05-04 19:39 | 57.37845 | 3.69594 | 37982 ft | 419 kts | 236° |
| 2026-05-04 19:40 | 57.34270 | 3.61054 | 37984 ft | 419 kts | 236° |
| 2026-05-04 19:40 | 57.30689 | 3.52534 | 37981 ft | 419 kts | 235° |
| 2026-05-04 19:41 | 57.27105 | 3.44035 | 37984 ft | 419 kts | 235° |
| 2026-05-04 19:41 | 57.23513 | 3.35548 | 37975 ft | 420 kts | 235° |
| 2026-05-04 19:42 | 57.19909 | 3.27061 | 37989 ft | 420 kts | 235° |
| 2026-05-04 19:42 | 57.16299 | 3.18591 | 37982 ft | 421 kts | 235° |
| 2026-05-04 19:43 | 57.12675 | 3.10119 | 37988 ft | 421 kts | 235° |
| 2026-05-04 19:43 | 57.09046 | 3.01666 | 37981 ft | 421 kts | 235° |
| 2026-05-04 19:44 | 57.05431 | 2.93275 | 37986 ft | 421 kts | 235° |
| 2026-05-04 19:44 | 57.01789 | 2.84850 | 37984 ft | 421 kts | 234° |
| 2026-05-04 19:45 | 56.98137 | 2.76431 | 37976 ft | 422 kts | 234° |
| 2026-05-04 19:45 | 56.94476 | 2.68019 | 37976 ft | 422 kts | 234° |
| 2026-05-04 19:46 | 56.90806 | 2.59618 | 37981 ft | 423 kts | 234° |
| 2026-05-04 19:46 | 56.87128 | 2.51229 | 37985 ft | 423 kts | 234° |
| 2026-05-04 19:47 | 56.83444 | 2.42855 | 37981 ft | 423 kts | 234° |
| 2026-05-04 19:47 | 56.79756 | 2.34500 | 37984 ft | 422 kts | 234° |
| 2026-05-04 19:48 | 56.76059 | 2.26156 | 37994 ft | 423 kts | 234° |
| 2026-05-04 19:48 | 56.72355 | 2.17824 | 38001 ft | 424 kts | 234° |
| 2026-05-04 19:49 | 56.68636 | 2.09485 | 38004 ft | 424 kts | 234° |
| 2026-05-04 19:49 | 56.64905 | 2.01150 | 38002 ft | 425 kts | 234° |
| 2026-05-04 19:50 | 56.61164 | 1.92824 | 38009 ft | 425 kts | 234° |
| 2026-05-04 19:50 | 56.57418 | 1.84512 | 38008 ft | 426 kts | 233° |
| 2026-05-04 19:51 | 56.53663 | 1.76210 | 38008 ft | 425 kts | 233° |
| 2026-05-04 19:51 | 56.49904 | 1.67929 | 38008 ft | 426 kts | 233° |
| 2026-05-04 19:52 | 56.46129 | 1.59640 | 38017 ft | 427 kts | 233° |
| 2026-05-04 19:52 | 56.42363 | 1.51399 | 38012 ft | 428 kts | 233° |
| 2026-05-04 19:53 | 56.38559 | 1.43105 | 38014 ft | 429 kts | 233° |
| 2026-05-04 19:53 | 56.34748 | 1.34824 | 38014 ft | 429 kts | 233° |
| 2026-05-04 19:54 | 56.30925 | 1.26545 | 38013 ft | 430 kts | 233° |
| 2026-05-04 19:54 | 56.27097 | 1.18283 | 38014 ft | 429 kts | 232° |
| 2026-05-04 19:55 | 56.23263 | 1.10037 | 38015 ft | 430 kts | 232° |
| 2026-05-04 19:55 | 56.19419 | 1.01799 | 38017 ft | 430 kts | 232° |
| 2026-05-04 19:56 | 56.15571 | 0.93579 | 38017 ft | 430 kts | 232° |
| 2026-05-04 19:56 | 56.11710 | 0.85360 | 38013 ft | 431 kts | 232° |
| 2026-05-04 19:57 | 56.07845 | 0.77159 | 38016 ft | 431 kts | 232° |
| 2026-05-04 19:57 | 56.03974 | 0.68976 | 38016 ft | 431 kts | 232° |
| 2026-05-04 19:58 | 56.00095 | 0.60802 | 38013 ft | 431 kts | 232° |
| 2026-05-04 19:58 | 55.96215 | 0.52654 | 38018 ft | 431 kts | 232° |
| 2026-05-04 19:59 | 55.92332 | 0.44529 | 38015 ft | 430 kts | 232° |
| 2026-05-04 19:59 | 55.88446 | 0.36423 | 38016 ft | 430 kts | 232° |
| 2026-05-04 20:00 | 55.84553 | 0.28331 | 38018 ft | 430 kts | 232° |
| 2026-05-04 20:00 | 55.80686 | 0.20317 | 38019 ft | 429 kts | 232° |
| 2026-05-04 20:01 | 55.76788 | 0.12268 | 38005 ft | 429 kts | 231° |
| 2026-05-04 20:01 | 55.72885 | 0.04235 | 38020 ft | 430 kts | 231° |
| 2026-05-04 20:02 | 55.68962 | -0.03811 | 38026 ft | 432 kts | 231° |
| 2026-05-04 20:02 | 55.65026 | -0.11858 | 38018 ft | 433 kts | 231° |
| 2026-05-04 20:03 | 55.61072 | -0.19915 | 38016 ft | 434 kts | 231° |
| 2026-05-04 20:03 | 55.57105 | -0.27970 | 38019 ft | 435 kts | 231° |
| 2026-05-04 20:04 | 55.53130 | -0.36014 | 38026 ft | 435 kts | 231° |
| 2026-05-04 20:04 | 55.49145 | -0.44053 | 38019 ft | 435 kts | 231° |
| 2026-05-04 20:05 | 55.45149 | -0.52087 | 38022 ft | 436 kts | 231° |
| 2026-05-04 20:05 | 55.41146 | -0.60108 | 38022 ft | 437 kts | 231° |
| 2026-05-04 20:06 | 55.37123 | -0.68142 | 38023 ft | 437 kts | 231° |
| 2026-05-04 20:06 | 55.33097 | -0.76156 | 38022 ft | 438 kts | 231° |
| 2026-05-04 20:07 | 55.29053 | -0.84179 | 38019 ft | 438 kts | 231° |
| 2026-05-04 20:07 | 55.25036 | -0.92126 | 37997 ft | 439 kts | 230° |
| 2026-05-04 20:08 | 55.20983 | -1.00117 | 38017 ft | 439 kts | 230° |
| 2026-05-04 20:08 | 55.16635 | -1.07623 | 38014 ft | 442 kts | 218° |
| 2026-05-04 20:09 | 55.11657 | -1.13958 | 38026 ft | 443 kts | 218° |
| 2026-05-04 20:09 | 55.06648 | -1.20252 | 38024 ft | 444 kts | 218° |
| 2026-05-04 20:10 | 55.01650 | -1.26591 | 38023 ft | 444 kts | 218° |
| 2026-05-04 20:10 | 54.96654 | -1.32949 | 38015 ft | 445 kts | 218° |
| 2026-05-04 20:11 | 54.91632 | -1.39330 | 37503 ft | 453 kts | 218° |
| 2026-05-04 20:11 | 54.89092 | -1.42550 | 36921 ft | 451 kts | 218° |
| 2026-05-04 20:11 | 54.86565 | -1.45746 | 36264 ft | 448 kts | 218° |
| 2026-05-04 20:11 | 54.84086 | -1.48874 | 35561 ft | 448 kts | 218° |
| 2026-05-04 20:12 | 54.81562 | -1.52057 | 34802 ft | 449 kts | 218° |
| 2026-05-04 20:12 | 54.79033 | -1.55241 | 34029 ft | 450 kts | 218° |
| 2026-05-04 20:12 | 54.76493 | -1.58435 | 33074 ft | 452 kts | 218° |
| 2026-05-04 20:12 | 54.73949 | -1.61627 | 32190 ft | 453 kts | 217° |
| 2026-05-04 20:13 | 54.71393 | -1.64829 | 31290 ft | 454 kts | 217° |
| 2026-05-04 20:13 | 54.68828 | -1.68038 | 30380 ft | 456 kts | 217° |
| 2026-05-04 20:13 | 54.66250 | -1.71257 | 29302 ft | 458 kts | 217° |
| 2026-05-04 20:13 | 54.63669 | -1.74476 | 28452 ft | 455 kts | 217° |
| 2026-05-04 20:14 | 54.61290 | -1.77439 | 27750 ft | 450 kts | 217° |
| 2026-05-04 20:14 | 54.58770 | -1.80571 | 27057 ft | 444 kts | 217° |
| 2026-05-04 20:14 | 54.56276 | -1.83651 | 26346 ft | 439 kts | 215° |
| 2026-05-04 20:14 | 54.53599 | -1.85947 | 25724 ft | 436 kts | 198° |
| 2026-05-04 20:15 | 54.51696 | -1.86722 | 25435 ft | 432 kts | 192° |